createdAt,value
2019-03-23T00:01:53.703Z,16.27
2019-03-23T00:04:21.961Z,16.48
2019-03-23T00:06:50.243Z,18.87
2019-03-23T00:09:19.080Z,23.38
2019-03-23T00:11:47.362Z,16.55
2019-03-23T00:14:15.624Z,16.93
2019-03-23T00:16:43.908Z,17.23
2019-03-23T00:19:12.167Z,22.27
2019-03-23T00:21:40.447Z,19.75
2019-03-23T00:24:08.711Z,20.35
2019-03-23T00:26:36.986Z,20.60
2019-03-23T00:29:05.243Z,23.45
2019-03-23T00:31:33.522Z,20.25
2019-03-23T00:34:01.778Z,21.95
2019-03-23T00:36:30.062Z,19.30
2019-03-23T00:38:58.679Z,22.58
2019-03-23T00:41:26.954Z,19.23
2019-03-23T00:43:55.211Z,19.17
2019-03-23T00:46:23.490Z,22.77
2019-03-23T00:48:51.747Z,20.82
2019-03-23T00:51:21.088Z,20.55
2019-03-23T00:53:50.019Z,26.85
2019-03-23T00:56:18.310Z,19.92
2019-03-23T00:58:46.607Z,18.27
2019-03-23T01:01:15.059Z,20.10
2019-03-23T01:03:43.338Z,20.37
2019-03-23T01:06:12.385Z,19.87
2019-03-23T01:08:41.314Z,21.52
2019-03-23T01:11:09.595Z,19.50
2019-03-23T01:13:37.855Z,18.10
2019-03-23T01:16:06.110Z,16.85
2019-03-23T01:18:35.063Z,21.55
2019-03-23T01:21:03.593Z,17.27
2019-03-23T01:23:32.633Z,16.55
2019-03-23T01:26:00.919Z,16.05
2019-03-23T01:28:29.168Z,18.45
2019-03-23T01:30:57.990Z,15.25
2019-03-23T01:33:26.265Z,16.10
2019-03-23T01:35:54.517Z,16.73
2019-03-23T01:38:23.365Z,14.43
2019-03-23T01:40:51.619Z,13.72
2019-03-23T01:43:20.666Z,13.75
2019-03-23T01:45:49.487Z,13.75
2019-03-23T01:48:17.772Z,14.63
2019-03-23T01:50:46.019Z,16.12
2019-03-23T01:53:14.578Z,13.25
2019-03-23T01:55:42.829Z,13.98
2019-03-23T01:58:11.106Z,12.53
2019-03-23T02:00:39.357Z,12.03
2019-03-23T02:03:07.632Z,14.75
2019-03-23T02:05:35.886Z,10.78
2019-03-23T02:08:04.162Z,14.30
2019-03-23T02:10:32.417Z,11.10
2019-03-23T02:13:00.691Z,11.93
2019-03-23T02:15:29.281Z,15.05
2019-03-23T02:17:58.324Z,14.45
2019-03-23T02:20:26.581Z,12.55
2019-03-23T02:22:54.839Z,9.90
2019-03-23T02:25:23.087Z,12.95
2019-03-23T02:27:51.361Z,13.43
2019-03-23T02:30:20.691Z,10.32
2019-03-23T02:32:49.017Z,11.00
2019-03-23T02:35:17.291Z,12.53
2019-03-23T02:37:45.569Z,14.00
2019-03-23T02:40:13.813Z,12.35
2019-03-23T02:42:42.852Z,11.73
2019-03-23T02:45:12.144Z,9.45
2019-03-23T02:47:40.512Z,12.03
2019-03-23T02:50:10.059Z,12.35
2019-03-23T02:52:38.400Z,10.77
2019-03-23T02:55:08.249Z,11.73
2019-03-23T02:57:36.535Z,14.13
2019-03-23T03:00:07.972Z,12.33
2019-03-23T03:02:36.245Z,11.48
2019-03-23T03:05:06.837Z,12.20
2019-03-23T03:07:42.102Z,11.33
2019-03-23T03:10:10.091Z,11.93
2019-03-23T03:12:38.938Z,9.93
2019-03-23T03:15:08.433Z,11.38
2019-03-23T03:17:36.706Z,13.70
2019-03-23T03:20:09.481Z,12.00
2019-03-23T03:22:37.750Z,10.53
2019-03-23T03:25:07.246Z,13.30
2019-03-23T03:27:35.555Z,11.40
2019-03-23T03:30:05.145Z,12.05
2019-03-23T03:32:33.425Z,11.80
2019-03-23T03:35:01.785Z,11.50
2019-03-23T03:37:30.029Z,12.28
2019-03-23T03:39:58.285Z,10.43
2019-03-23T03:42:26.566Z,11.18
2019-03-23T03:44:54.819Z,10.90
2019-03-23T03:47:23.104Z,12.75
2019-03-23T03:49:51.350Z,11.50
2019-03-23T03:52:19.627Z,14.05
2019-03-23T03:54:47.872Z,11.90
2019-03-23T03:57:16.144Z,13.80
2019-03-23T03:59:44.386Z,9.45
2019-03-23T04:02:12.662Z,11.22
2019-03-23T04:04:40.924Z,13.15
2019-03-23T04:07:09.783Z,14.05
2019-03-23T04:09:40.447Z,14.15
2019-03-23T04:12:08.871Z,12.05
2019-03-23T04:14:37.121Z,12.60
2019-03-23T04:17:05.386Z,13.98
2019-03-23T04:19:33.651Z,14.55
2019-03-23T04:22:01.904Z,14.45
2019-03-23T04:24:30.193Z,15.15
2019-03-23T04:26:58.716Z,15.05
2019-03-23T04:29:27.755Z,16.73
2019-03-23T04:31:55.996Z,16.57
2019-03-23T04:34:24.276Z,13.32
2019-03-23T04:36:52.524Z,15.05
2019-03-23T04:39:20.838Z,15.15
2019-03-23T04:41:49.090Z,17.92
2019-03-23T04:44:17.365Z,18.10
2019-03-23T04:46:45.617Z,17.87
2019-03-23T04:49:13.892Z,19.52
2019-03-23T04:51:42.150Z,20.25
2019-03-23T04:54:10.433Z,20.77
2019-03-23T04:56:38.687Z,20.15
2019-03-23T04:59:06.971Z,24.87
2019-03-23T05:01:35.998Z,22.05
2019-03-23T05:04:04.274Z,24.70
2019-03-23T05:06:32.529Z,28.60
2019-03-23T05:09:00.811Z,35.65
2019-03-23T05:11:29.069Z,37.83
2019-03-23T05:13:57.344Z,61.20
2019-03-23T05:16:25.608Z,102.38
2019-03-23T05:18:53.894Z,110.32
2019-03-23T05:21:22.924Z,105.25
2019-03-23T05:23:51.202Z,98.27
2019-03-23T05:26:19.463Z,108.20
2019-03-23T05:28:47.742Z,108.85
2019-03-23T05:31:16.057Z,122.00
2019-03-23T05:33:44.344Z,118.33
2019-03-23T05:36:12.605Z,107.63
2019-03-23T05:38:44.561Z,91.55
2019-03-23T05:41:11.438Z,72.45
2019-03-23T05:43:39.726Z,70.15
2019-03-23T05:46:07.986Z,70.45
2019-03-23T05:48:36.832Z,71.35
2019-03-23T05:51:05.661Z,80.35
2019-03-23T05:53:33.937Z,87.88
2019-03-23T05:56:02.193Z,92.53
2019-03-23T05:58:30.470Z,97.08
2019-03-23T06:01:00.065Z,90.15
2019-03-23T06:03:28.346Z,86.05
2019-03-23T06:05:56.601Z,90.12
2019-03-23T06:08:24.896Z,91.53
2019-03-23T06:10:53.143Z,90.25
2019-03-23T06:13:21.429Z,83.25
2019-03-23T06:15:50.247Z,78.60
2019-03-23T06:18:18.526Z,58.73
2019-03-23T06:20:46.793Z,58.42
2019-03-23T06:23:15.080Z,62.48
2019-03-23T06:25:43.907Z,53.60
2019-03-23T06:28:12.188Z,46.63
2019-03-23T06:30:41.012Z,35.60
2019-03-23T06:33:10.066Z,37.40
2019-03-23T06:35:38.323Z,29.87
2019-03-23T06:38:06.611Z,29.87
2019-03-23T06:40:34.870Z,30.02
2019-03-23T06:43:03.922Z,31.25
2019-03-23T06:45:32.180Z,31.50
2019-03-23T06:48:00.462Z,33.25
2019-03-23T06:50:28.719Z,34.23
2019-03-23T06:52:57.003Z,35.03
2019-03-23T06:55:25.257Z,40.67
2019-03-23T06:57:53.584Z,45.03
2019-03-23T07:00:21.803Z,60.43
2019-03-23T07:02:50.056Z,79.82
2019-03-23T07:05:18.343Z,82.47
2019-03-23T07:07:47.167Z,80.85
2019-03-23T07:10:15.614Z,87.05
2019-03-23T07:12:43.872Z,92.67
2019-03-23T07:15:19.989Z,86.90
2019-03-23T07:17:42.305Z,85.03
2019-03-23T07:20:12.521Z,77.17
2019-03-23T07:22:40.778Z,78.20
2019-03-23T07:25:10.697Z,85.28
2019-03-23T07:27:38.952Z,93.97
2019-03-23T07:30:17.752Z,89.95
2019-03-23T07:32:46.008Z,99.35
2019-03-23T07:35:14.726Z,100.22
2019-03-23T07:37:43.012Z,109.72
2019-03-23T07:40:12.249Z,114.03
2019-03-23T07:42:40.512Z,117.87
2019-03-23T07:45:12.051Z,142.13
2019-03-23T07:47:40.305Z,137.10
2019-03-23T07:50:10.429Z,133.32
2019-03-23T07:52:38.693Z,133.55
2019-03-23T07:55:14.960Z,139.82
2019-03-23T07:57:43.381Z,125.85
2019-03-23T08:00:22.122Z,136.62
2019-03-23T08:02:50.452Z,134.43
2019-03-23T08:05:18.735Z,139.32
2019-03-23T08:07:46.989Z,134.30
2019-03-23T08:10:31.622Z,141.92
2019-03-23T08:13:00.181Z,128.25
2019-03-23T08:15:28.451Z,147.22
2019-03-23T08:17:56.708Z,127.32
2019-03-23T08:20:25.463Z,132.35
2019-03-23T08:22:54.465Z,142.65
2019-03-23T08:25:22.749Z,138.82
2019-03-23T08:27:51.012Z,154.50
2019-03-23T08:30:19.304Z,136.47
2019-03-23T08:32:47.564Z,137.07
2019-03-23T08:35:16.423Z,137.47
2019-03-23T08:37:44.678Z,132.78
2019-03-23T08:40:13.330Z,129.53
2019-03-23T08:42:41.596Z,124.05
2019-03-23T08:45:09.879Z,130.75
2019-03-23T08:47:38.144Z,131.97
2019-03-23T08:50:06.995Z,131.78
2019-03-23T08:52:35.255Z,127.47
2019-03-23T08:55:03.704Z,134.20
2019-03-23T08:57:31.966Z,124.62
2019-03-23T09:00:00.327Z,131.00
2019-03-23T09:02:28.583Z,134.35
2019-03-23T09:04:56.872Z,144.65
2019-03-23T09:07:25.129Z,147.60
2019-03-23T09:09:59.110Z,133.32
2019-03-23T09:12:23.415Z,137.65
2019-03-23T09:14:51.700Z,130.75
2019-03-23T09:17:19.953Z,132.07
2019-03-23T09:19:48.577Z,137.22
2019-03-23T09:22:16.840Z,138.80
2019-03-23T09:24:45.433Z,140.15
2019-03-23T09:27:13.691Z,151.53
2019-03-23T09:29:41.983Z,141.12
2019-03-23T09:32:10.249Z,131.93
2019-03-23T09:34:38.571Z,133.00
2019-03-23T09:37:06.826Z,143.37
2019-03-23T09:39:35.083Z,143.35
2019-03-23T09:42:03.367Z,134.72
2019-03-23T09:44:31.637Z,148.40
2019-03-23T09:47:00.480Z,154.72
2019-03-23T09:49:30.079Z,159.25
2019-03-23T09:51:58.368Z,163.95
2019-03-23T09:54:27.394Z,163.10
2019-03-23T09:56:56.919Z,161.75
2019-03-23T09:59:25.186Z,151.80
2019-03-23T10:01:53.486Z,155.70
2019-03-23T10:04:21.752Z,160.12
2019-03-23T10:06:50.054Z,165.73
2019-03-23T10:09:18.317Z,167.47
2019-03-23T10:11:46.598Z,169.62
2019-03-23T10:14:14.854Z,182.22
2019-03-23T10:16:43.712Z,174.75
2019-03-23T10:19:12.862Z,162.10
2019-03-23T10:21:41.141Z,166.20
2019-03-23T10:24:09.405Z,179.27
2019-03-23T10:26:37.690Z,167.00
2019-03-23T10:29:05.953Z,159.65
2019-03-23T10:31:34.237Z,174.85
2019-03-23T10:34:02.498Z,177.32
2019-03-23T10:36:30.785Z,165.22
2019-03-23T10:38:59.776Z,141.43
2019-03-23T10:41:28.065Z,133.80
2019-03-23T10:43:56.327Z,126.27
2019-03-23T10:46:25.175Z,134.78
2019-03-23T10:48:53.551Z,126.62
2019-03-23T10:51:22.409Z,143.10
2019-03-23T10:53:51.440Z,134.30
2019-03-23T10:56:19.725Z,126.10
2019-03-23T10:58:47.988Z,119.20
2019-03-23T11:01:16.276Z,126.60
2019-03-23T11:03:44.534Z,115.80
2019-03-23T11:06:12.822Z,131.97
2019-03-23T11:08:41.853Z,126.72
2019-03-23T11:11:10.135Z,117.80
2019-03-23T11:13:39.167Z,121.28
2019-03-23T11:16:07.449Z,123.30
2019-03-23T11:18:37.730Z,124.20
2019-03-23T11:21:06.045Z,127.80
2019-03-23T11:23:34.302Z,127.87
2019-03-23T11:26:03.154Z,128.72
2019-03-23T11:28:31.437Z,121.80
2019-03-23T11:30:59.849Z,124.55
2019-03-23T11:33:28.456Z,124.75
2019-03-23T11:35:58.037Z,138.35
2019-03-23T11:38:26.592Z,131.87
2019-03-23T11:40:55.349Z,127.30
2019-03-23T11:43:23.719Z,124.70
2019-03-23T11:45:52.656Z,114.40
2019-03-23T11:48:21.556Z,128.42
2019-03-23T11:50:49.770Z,124.92
2019-03-23T11:53:18.054Z,115.90
2019-03-23T11:55:46.317Z,117.70
2019-03-23T11:58:14.818Z,115.45
2019-03-23T12:00:43.074Z,113.83
2019-03-23T12:03:11.349Z,108.63
2019-03-23T12:05:39.978Z,117.08
2019-03-23T12:08:08.265Z,113.42
2019-03-23T12:10:36.518Z,113.03
2019-03-23T12:13:04.805Z,120.33
2019-03-23T12:15:33.063Z,99.40
2019-03-23T12:18:02.120Z,104.58
2019-03-23T12:20:30.405Z,116.65
2019-03-23T12:22:59.503Z,105.43
2019-03-23T12:25:27.717Z,106.80
2019-03-23T12:27:56.575Z,103.00
2019-03-23T12:30:25.609Z,113.50
2019-03-23T12:32:53.891Z,101.72
2019-03-23T12:35:22.622Z,96.12
2019-03-23T12:37:50.898Z,100.12
2019-03-23T12:40:19.161Z,99.30
2019-03-23T12:42:47.436Z,100.67
2019-03-23T12:45:15.861Z,99.42
2019-03-23T12:47:44.144Z,97.40
2019-03-23T12:50:12.393Z,95.00
2019-03-23T12:52:40.681Z,95.75
2019-03-23T12:55:09.306Z,104.32
2019-03-23T12:57:37.593Z,107.92
2019-03-23T13:00:09.104Z,98.52
2019-03-23T13:02:37.459Z,91.57
2019-03-23T13:05:06.785Z,103.92
2019-03-23T13:07:36.416Z,103.80
2019-03-23T13:10:06.219Z,100.22
2019-03-23T13:12:34.505Z,98.50
2019-03-23T13:15:02.842Z,101.58
2019-03-23T13:17:31.132Z,102.55
2019-03-23T13:19:59.457Z,97.67
2019-03-23T13:22:27.757Z,100.20
2019-03-23T13:24:56.011Z,94.32
2019-03-23T13:27:24.295Z,96.55
2019-03-23T13:29:52.553Z,84.30
2019-03-23T13:32:20.838Z,80.30
2019-03-23T13:34:49.097Z,88.55
2019-03-23T13:37:17.375Z,87.42
2019-03-23T13:39:45.636Z,89.92
2019-03-23T13:42:13.896Z,84.45
2019-03-23T13:44:42.180Z,88.10
2019-03-23T13:47:11.311Z,82.92
2019-03-23T13:49:39.590Z,84.60
2019-03-23T13:52:07.851Z,82.72
2019-03-23T13:54:36.135Z,83.27
2019-03-23T13:57:04.466Z,82.47
2019-03-23T13:59:32.748Z,84.65
2019-03-23T14:02:01.006Z,82.00
2019-03-23T14:04:29.295Z,81.22
2019-03-23T14:06:57.566Z,77.70
2019-03-23T14:09:26.877Z,79.17
2019-03-23T14:11:55.925Z,76.02
2019-03-23T14:14:24.197Z,75.75
2019-03-23T14:16:52.460Z,74.40
2019-03-23T14:19:20.749Z,75.80
2019-03-23T14:21:49.021Z,75.97
2019-03-23T14:24:17.298Z,79.75
2019-03-23T14:26:45.557Z,80.72
2019-03-23T14:29:13.843Z,79.07
2019-03-23T14:31:42.103Z,79.07
2019-03-23T14:34:10.389Z,87.25
2019-03-23T14:36:38.652Z,79.55
2019-03-23T14:39:07.204Z,80.92
2019-03-23T14:41:35.467Z,80.65
2019-03-23T14:44:03.746Z,83.87
2019-03-23T14:46:32.009Z,80.07
2019-03-23T14:49:01.881Z,80.50
2019-03-23T14:51:30.323Z,77.92
2019-03-23T14:53:58.609Z,77.62
2019-03-23T14:56:31.475Z,79.82
2019-03-23T14:58:57.455Z,76.55
2019-03-23T15:01:25.707Z,80.92
2019-03-23T15:03:53.993Z,82.75
2019-03-23T15:06:23.024Z,82.62
2019-03-23T15:08:51.308Z,79.07
2019-03-23T15:11:19.813Z,78.75
2019-03-23T15:13:48.094Z,80.32
2019-03-23T15:16:17.034Z,75.32
2019-03-23T15:18:45.315Z,72.80
2019-03-23T15:21:14.146Z,68.40
2019-03-23T15:23:42.430Z,69.32
2019-03-23T15:26:10.700Z,75.70
2019-03-23T15:28:38.958Z,75.22
2019-03-23T15:31:07.234Z,71.12
2019-03-23T15:33:35.489Z,66.60
2019-03-23T15:36:03.779Z,71.02
2019-03-23T15:38:32.402Z,68.05
2019-03-23T15:41:00.678Z,69.70
2019-03-23T15:43:29.015Z,63.63
2019-03-23T15:45:57.296Z,66.50
2019-03-23T15:48:25.558Z,71.92
2019-03-23T15:50:54.212Z,72.10
2019-03-23T15:53:22.470Z,72.05
2019-03-23T15:55:50.750Z,68.42
2019-03-23T15:58:19.086Z,71.97
2019-03-23T16:00:47.367Z,73.10
2019-03-23T16:03:15.627Z,70.10
2019-03-23T16:05:43.905Z,71.00
2019-03-23T16:08:12.162Z,71.97
2019-03-23T16:10:41.212Z,71.35
2019-03-23T16:13:09.469Z,78.05
2019-03-23T16:15:37.756Z,75.03
2019-03-23T16:18:06.015Z,71.30
2019-03-23T16:20:34.301Z,77.40
2019-03-23T16:23:02.566Z,79.82
2019-03-23T16:25:31.435Z,76.67
2019-03-23T16:27:59.677Z,80.57
2019-03-23T16:30:31.897Z,89.03
2019-03-23T16:33:00.157Z,82.35
2019-03-23T16:35:29.008Z,96.82
2019-03-23T16:37:57.932Z,98.17
2019-03-23T16:40:26.210Z,103.72
2019-03-23T16:42:55.038Z,92.78
2019-03-23T16:45:23.314Z,91.67
2019-03-23T16:47:51.578Z,92.45
2019-03-23T16:50:19.859Z,99.13
2019-03-23T16:52:48.114Z,96.32
2019-03-23T16:55:16.393Z,105.07
2019-03-23T16:57:44.650Z,102.02
2019-03-23T17:00:14.173Z,100.97
2019-03-23T17:02:42.431Z,99.20
2019-03-23T17:05:10.714Z,97.05
2019-03-23T17:07:38.970Z,92.27
2019-03-23T17:10:07.250Z,93.58
2019-03-23T17:12:36.349Z,96.75
2019-03-23T17:15:06.734Z,100.72
2019-03-23T17:20:02.698Z,85.47
2019-03-23T17:22:31.534Z,102.25
2019-03-23T17:24:59.792Z,101.27
2019-03-23T17:27:28.076Z,97.95
2019-03-23T17:29:57.181Z,100.18
2019-03-23T17:32:25.466Z,105.03
2019-03-23T17:34:55.062Z,93.42
2019-03-23T17:37:23.341Z,96.80
2019-03-23T17:39:51.602Z,101.70
2019-03-23T17:42:19.880Z,103.50
2019-03-23T17:44:48.910Z,100.60
2019-03-23T17:47:17.187Z,95.47
2019-03-23T17:49:45.454Z,101.58
2019-03-23T17:52:14.304Z,101.18
2019-03-23T17:54:43.345Z,106.32
2019-03-23T17:57:11.613Z,107.55
2019-03-23T17:59:39.888Z,97.95
2019-03-23T18:02:08.162Z,104.47
2019-03-23T18:04:36.424Z,102.17
2019-03-23T18:07:04.961Z,96.92
2019-03-23T18:09:33.992Z,114.70
2019-03-23T18:12:02.271Z,105.15
2019-03-23T18:14:30.533Z,111.57
2019-03-23T18:16:59.382Z,104.25
2019-03-23T18:19:27.643Z,104.87
2019-03-23T18:21:56.845Z,110.50
2019-03-23T18:24:25.099Z,100.60
2019-03-23T18:26:53.945Z,105.27
2019-03-23T18:29:22.201Z,102.17
2019-03-23T18:31:50.488Z,110.65
2019-03-23T18:34:19.315Z,107.43
2019-03-23T18:36:47.604Z,100.62
2019-03-23T18:39:15.861Z,99.72
2019-03-23T18:41:44.914Z,101.35
2019-03-23T18:44:16.441Z,99.00
2019-03-23T18:46:43.163Z,101.40
2019-03-23T18:49:11.423Z,102.80
2019-03-23T18:51:39.712Z,102.38
2019-03-23T18:54:08.533Z,100.75
2019-03-23T18:56:37.580Z,96.10
2019-03-23T18:59:05.840Z,107.45
2019-03-23T19:01:34.118Z,100.15
2019-03-23T19:04:02.374Z,99.22
2019-03-23T19:06:30.655Z,90.05
2019-03-23T19:08:58.915Z,89.35
2019-03-23T19:11:27.184Z,84.62
2019-03-23T19:13:55.437Z,79.65
2019-03-23T19:16:23.718Z,83.00
2019-03-23T19:18:52.548Z,78.62
2019-03-23T19:21:20.813Z,78.95
2019-03-23T19:23:49.962Z,81.60
2019-03-23T19:26:18.215Z,82.65
2019-03-23T19:28:46.486Z,84.47
2019-03-23T19:31:15.320Z,82.85
2019-03-23T19:33:44.268Z,87.50
2019-03-23T19:36:12.520Z,75.15
2019-03-23T19:38:41.372Z,78.75
2019-03-23T19:41:09.630Z,80.72
2019-03-23T19:43:48.355Z,85.62
2019-03-23T19:46:08.664Z,74.85
2019-03-23T19:48:36.944Z,73.92
2019-03-23T19:51:05.198Z,69.90
2019-03-23T19:53:33.478Z,70.05
2019-03-23T19:56:01.738Z,61.92
2019-03-23T19:58:30.018Z,65.08
2019-03-23T20:00:58.277Z,61.08
2019-03-23T20:03:27.226Z,64.58
2019-03-23T20:05:56.254Z,59.75
2019-03-23T20:08:25.603Z,65.35
2019-03-23T20:10:54.067Z,55.17
2019-03-23T20:13:22.634Z,64.67
2019-03-23T20:15:50.888Z,60.67
2019-03-23T20:18:19.172Z,59.15
2019-03-23T20:20:47.425Z,59.15
2019-03-23T20:23:15.710Z,57.55
2019-03-23T20:25:44.735Z,60.80
2019-03-23T20:28:13.019Z,52.83
2019-03-23T20:30:41.286Z,47.75
2019-03-23T20:33:19.109Z,50.15
2019-03-23T20:35:39.530Z,49.77
2019-03-23T20:38:07.823Z,43.85
2019-03-23T20:40:36.071Z,39.73
2019-03-23T20:43:04.352Z,38.90
2019-03-23T20:45:32.613Z,39.50
2019-03-23T20:48:00.910Z,46.53
2019-03-23T20:50:29.148Z,39.58
2019-03-23T20:52:57.428Z,38.05
2019-03-23T20:55:27.877Z,38.40
2019-03-23T21:00:24.628Z,35.90
2019-03-23T21:02:52.936Z,38.28
2019-03-23T21:05:21.162Z,29.80
2019-03-23T21:07:49.433Z,35.98
2019-03-23T21:10:17.685Z,39.00
2019-03-23T21:12:46.705Z,40.20
2019-03-23T21:15:14.956Z,34.03
2019-03-23T21:17:51.085Z,38.05
2019-03-23T21:20:13.220Z,33.88
2019-03-23T21:22:41.502Z,30.02
2019-03-23T21:25:09.749Z,24.55
2019-03-23T21:27:38.007Z,30.85
2019-03-23T21:30:12.248Z,22.95
2019-03-23T21:32:41.174Z,21.80
2019-03-23T21:35:09.457Z,23.75
2019-03-23T21:37:37.710Z,27.87
2019-03-23T21:40:06.261Z,30.25
2019-03-23T21:42:34.509Z,23.20
2019-03-23T21:45:02.784Z,26.68
2019-03-23T21:47:31.032Z,25.32
2019-03-23T21:49:59.305Z,24.98
2019-03-23T21:52:27.561Z,22.07
2019-03-23T21:54:55.828Z,23.60
2019-03-23T21:57:24.079Z,21.15
2019-03-23T21:59:52.369Z,21.57
2019-03-23T22:02:20.620Z,21.65
2019-03-23T22:04:49.462Z,22.87
2019-03-23T22:07:17.707Z,23.62
2019-03-23T22:09:46.001Z,24.82
2019-03-23T22:12:14.726Z,29.37
2019-03-23T22:14:43.009Z,23.40
2019-03-23T22:17:11.263Z,20.65
2019-03-23T22:19:39.537Z,23.30
2019-03-23T22:22:07.791Z,25.85
2019-03-23T22:24:36.315Z,28.02
2019-03-23T22:27:04.567Z,25.23
2019-03-23T22:29:32.843Z,22.85
2019-03-23T22:32:01.839Z,24.10
2019-03-23T22:34:30.114Z,25.32
2019-03-23T22:36:58.365Z,23.47
2019-03-23T22:39:26.641Z,21.15
2019-03-23T22:41:54.900Z,23.80
2019-03-23T22:44:23.188Z,25.08
2019-03-23T22:46:52.004Z,24.02
2019-03-23T22:49:20.285Z,25.25
2019-03-23T22:51:49.078Z,28.38
2019-03-23T22:54:17.347Z,24.45
2019-03-23T22:56:45.595Z,32.33
2019-03-23T22:59:15.407Z,26.95
2019-03-23T23:01:43.830Z,20.77
2019-03-23T23:04:12.105Z,22.00
2019-03-23T23:06:40.358Z,22.58
2019-03-23T23:09:09.599Z,17.50
2019-03-23T23:11:37.850Z,21.15
2019-03-23T23:14:06.689Z,21.90
2019-03-23T23:16:34.937Z,26.10
2019-03-23T23:19:03.208Z,17.23
2019-03-23T23:21:31.787Z,20.57
2019-03-23T23:24:00.052Z,23.73
2019-03-23T23:26:28.307Z,20.12
2019-03-23T23:28:56.581Z,20.82
2019-03-23T23:31:24.832Z,20.10
2019-03-23T23:33:53.109Z,18.25
2019-03-23T23:36:22.706Z,18.50
2019-03-23T23:38:52.551Z,18.20
2019-03-23T23:41:21.006Z,16.52
2019-03-23T23:43:49.853Z,22.35
2019-03-23T23:46:18.112Z,18.80
2019-03-23T23:48:51.180Z,22.07
2019-03-23T23:51:16.360Z,15.63
2019-03-23T23:53:45.025Z,20.08
2019-03-23T23:56:13.302Z,18.67
2019-03-23T23:58:41.555Z,16.57
